Time;durP1;ratioP1;P1;durP2;ratioP2;P2;SDS_P1;SDS_P2;PMS_P1;PMS_P2;Temp;Humidity;BMP_temperature;BMP_pressure;BME280_temperature;BME280_humidity;BME280_pressure;Samples;Min_cycle;Max_cycle;Signal;HPM_P1;HPM_P2
2022/07/17 00:00:04;;;;;;;3.00;2.13;;;;;;;15.16;62.63;101010.00;4969699;28;20238;-64
2022/07/17 00:02:29;;;;;;;3.63;1.90;;;;;;;15.12;62.69;101013.69;4981304;28;20285;-63
2022/07/17 00:04:55;;;;;;;6.00;1.97;;;;;;;15.06;63.45;101012.31;4972849;28;20643;-63
2022/07/17 00:07:20;;;;;;;3.00;2.07;;;;;;;14.99;64.37;101011.81;4976054;28;20283;-63
2022/07/17 00:09:45;;;;;;;4.40;2.20;;;;;;;14.91;65.06;101008.84;4972651;28;20180;-64
2022/07/17 00:12:10;;;;;;;5.53;2.27;;;;;;;14.84;65.26;101003.19;4959856;28;20235;-64
2022/07/17 00:14:36;;;;;;;2.90;2.00;;;;;;;14.77;65.89;100996.72;4964760;28;20403;-63
2022/07/17 00:17:01;;;;;;;2.20;2.00;;;;;;;14.77;65.98;101006.22;4972462;28;20184;-63
2022/07/17 00:19:27;;;;;;;6.47;2.80;;;;;;;14.64;65.54;101001.72;4972415;28;20266;-63
2022/07/17 00:21:52;;;;;;;2.27;1.97;;;;;;;14.64;65.72;100999.13;4980476;28;20310;-63
2022/07/17 00:24:20;;;;;;;3.97;1.80;;;;;;;14.55;66.44;101001.41;4973544;28;20627;-62
2022/07/17 00:26:49;;;;;;;4.03;2.17;;;;;;;14.40;66.54;100996.19;4972317;28;20184;-63
2022/07/17 00:29:15;;;;;;;3.53;1.90;;;;;;;14.36;67.30;100997.25;4987333;28;20177;-63
2022/07/17 00:31:41;;;;;;;2.93;1.87;;;;;;;14.32;67.42;101000.97;4963960;28;20227;-64
2022/07/17 00:34:07;;;;;;;3.00;1.77;;;;;;;14.32;67.13;100995.78;4969857;28;20185;-63
2022/07/17 00:36:32;;;;;;;5.27;2.03;;;;;;;14.28;67.62;100997.69;4970685;28;20188;-63
2022/07/17 00:38:58;;;;;;;4.00;2.00;;;;;;;14.29;67.63;100994.19;4970867;28;20209;-64
2022/07/17 00:41:23;;;;;;;3.60;1.70;;;;;;;14.22;67.26;100998.03;4968748;28;20231;-64
2022/07/17 00:43:48;;;;;;;4.73;2.00;;;;;;;14.14;67.90;101000.22;4980675;28;20180;-63
2022/07/17 00:46:14;;;;;;;4.23;2.13;;;;;;;14.11;67.72;101001.22;4975676;28;20250;-63
2022/07/17 00:48:39;;;;;;;5.87;2.30;;;;;;;14.12;67.88;100999.47;4970864;28;20598;-63
2022/07/17 00:51:04;;;;;;;3.67;2.03;;;;;;;14.02;68.21;101005.16;4964052;28;20258;-63
2022/07/17 00:53:35;;;;;;;5.00;2.63;;;;;;;13.97;68.28;101001.97;4982658;28;20226;-62
2022/07/17 00:56:05;;;;;;;4.47;2.00;;;;;;;13.93;69.03;101012.56;4975767;28;20540;-63
2022/07/17 00:58:35;;;;;;;3.00;2.30;;;;;;;13.86;68.68;101007.72;4974266;28;20548;-63
2022/07/17 01:01:05;;;;;;;4.10;1.80;;;;;;;13.84;68.34;101006.13;4964288;28;20242;-62
2022/07/17 01:03:31;;;;;;;4.00;2.20;;;;;;;13.75;68.49;100998.91;4977050;28;20226;-63
2022/07/17 01:05:56;;;;;;;3.17;1.57;;;;;;;13.74;68.32;101003.22;4990345;28;20219;-62
2022/07/17 01:08:21;;;;;;;4.40;2.03;;;;;;;13.71;69.37;100998.22;4975524;28;20267;-62
2022/07/17 01:10:47;;;;;;;4.50;1.80;;;;;;;13.66;68.93;100995.88;4963093;28;20594;-63
2022/07/17 01:13:13;;;;;;;4.13;2.17;;;;;;;13.61;69.03;100991.88;4978696;28;20212;-63
2022/07/17 01:15:39;;;;;;;8.33;1.70;;;;;;;13.54;68.85;100996.53;4990302;28;20180;-63
2022/07/17 01:18:10;;;;;;;4.50;2.03;;;;;;;13.46;69.40;100999.50;4975131;28;20188;-63
2022/07/17 01:20:38;;;;;;;3.30;2.27;;;;;;;13.52;69.58;100994.03;4969032;28;20231;-62
2022/07/17 01:23:03;;;;;;;2.33;1.70;;;;;;;13.54;69.82;100996.53;4985851;28;20188;-62
2022/07/17 01:25:29;;;;;;;4.30;2.00;;;;;;;13.47;70.04;100992.59;4975262;28;20203;-62
2022/07/17 01:27:54;;;;;;;2.20;1.77;;;;;;;13.50;70.37;100997.59;4975203;28;20548;-64
2022/07/17 01:30:20;;;;;;;4.63;1.60;;;;;;;13.48;70.37;100995.13;4981127;28;20191;-63
2022/07/17 01:32:45;;;;;;;4.77;1.83;;;;;;;13.47;70.37;100997.75;4985453;28;20200;-63
2022/07/17 01:35:13;;;;;;;2.63;1.80;;;;;;;13.44;70.26;100988.41;4973672;28;20187;-63
2022/07/17 01:37:39;;;;;;;3.93;2.00;;;;;;;13.45;70.77;100989.25;4973701;28;20180;-63
2022/07/17 01:40:06;;;;;;;3.40;2.00;;;;;;;13.39;70.82;100988.66;4964395;28;20303;-63
2022/07/17 01:42:31;;;;;;;3.00;1.33;;;;;;;13.37;71.18;100987.03;4989473;28;20215;-63
2022/07/17 01:44:57;;;;;;;2.50;1.43;;;;;;;13.43;71.13;100994.50;4975336;28;20220;-64
2022/07/17 01:47:23;;;;;;;4.03;2.27;;;;;;;13.45;71.10;100990.09;4973566;28;20188;-63
2022/07/17 01:49:51;;;;;;;5.13;2.43;;;;;;;13.41;71.07;100996.34;4974049;28;20283;-64
2022/07/17 01:52:17;;;;;;;3.73;1.83;;;;;;;13.33;72.05;100996.69;4979785;28;20270;-64
2022/07/17 01:54:43;;;;;;;3.63;1.90;;;;;;;13.30;72.80;101004.59;4973450;28;20176;-63
2022/07/17 01:57:09;;;;;;;5.87;1.90;;;;;;;13.29;72.66;101007.28;4989781;28;20675;-63
2022/07/17 01:59:35;;;;;;;3.63;1.80;;;;;;;13.18;72.47;101006.06;4973880;28;20270;-63
2022/07/17 02:02:00;;;;;;;5.60;2.37;;;;;;;13.08;72.70;101008.31;4979270;28;20313;-64
2022/07/17 02:04:26;;;;;;;5.70;1.57;;;;;;;13.11;73.32;100996.13;4974414;28;20196;-63
2022/07/17 02:06:54;;;;;;;4.47;2.27;;;;;;;13.05;73.30;101005.84;4974106;28;20235;-64
2022/07/17 02:09:20;;;;;;;5.07;1.93;;;;;;;13.03;73.50;100997.34;4974249;28;20205;-63
2022/07/17 02:11:46;;;;;;;5.80;2.20;;;;;;;12.96;73.11;100998.59;4968579;28;20232;-63
2022/07/17 02:14:11;;;;;;;2.40;2.00;;;;;;;12.89;73.92;101004.97;4976335;28;20286;-64
2022/07/17 02:16:36;;;;;;;2.00;1.80;;;;;;;12.85;73.76;101006.88;4974312;28;20191;-63
2022/07/17 02:19:02;;;;;;;5.73;1.70;;;;;;;12.79;74.24;101001.16;4972231;28;20188;-64
2022/07/17 02:21:27;;;;;;;4.27;2.07;;;;;;;12.82;73.97;101007.00;4965934;28;20233;-63
2022/07/17 02:23:52;;;;;;;5.20;1.93;;;;;;;12.69;73.58;101003.34;4978358;28;20238;-64
2022/07/17 02:26:18;;;;;;;4.73;2.00;;;;;;;12.61;74.98;101005.47;4973970;28;20673;-64
2022/07/17 02:28:43;;;;;;;9.90;2.27;;;;;;;12.58;75.44;101007.28;4988480;28;20180;-63
2022/07/17 02:31:09;;;;;;;3.30;1.73;;;;;;;12.52;74.75;100997.28;4970484;28;20309;-63
2022/07/17 02:33:34;;;;;;;3.80;1.87;;;;;;;12.48;75.29;101003.50;4980579;28;20224;-63
2022/07/17 02:36:01;;;;;;;5.37;2.20;;;;;;;12.46;75.54;101012.22;4972134;28;20190;-64
2022/07/17 02:38:26;;;;;;;5.30;2.00;;;;;;;12.46;76.05;101013.03;4974135;28;20196;-63
2022/07/17 02:40:52;;;;;;;4.43;1.93;;;;;;;12.41;76.23;101010.69;4969641;28;20230;-64
2022/07/17 02:43:17;;;;;;;3.43;1.80;;;;;;;12.38;76.68;101007.44;4982638;28;20188;-63
2022/07/17 02:45:42;;;;;;;3.67;1.97;;;;;;;12.32;77.18;101018.03;4973720;28;20188;-63
2022/07/17 02:48:08;;;;;;;5.47;2.00;;;;;;;12.38;76.99;101020.34;4973488;28;20176;-64
2022/07/17 02:50:33;;;;;;;5.47;2.27;;;;;;;12.34;76.99;101019.66;4961690;28;20312;-63
2022/07/17 02:52:58;;;;;;;2.17;1.60;;;;;;;12.34;76.97;101014.47;4984109;28;20204;-64
2022/07/17 02:55:24;;;;;;;3.63;1.63;;;;;;;12.31;77.47;101012.03;4973986;28;20218;-63
2022/07/17 02:57:49;;;;;;;2.03;1.50;;;;;;;12.18;78.54;101016.94;4972269;28;20202;-64
2022/07/17 03:00:16;;;;;;;4.07;2.00;;;;;;;12.22;78.63;101005.56;4953996;28;20205;-63
2022/07/17 03:02:43;;;;;;;2.60;1.80;;;;;;;12.30;78.50;101012.13;4986669;28;20215;-64
2022/07/17 03:05:08;;;;;;;3.73;1.80;;;;;;;12.36;77.61;101007.47;4973409;28;20213;-63
2022/07/17 03:07:34;;;;;;;2.17;1.57;;;;;;;12.37;77.44;101008.34;4973381;28;20756;-63
2022/07/17 03:09:59;;;;;;;5.83;2.13;;;;;;;12.35;77.73;101010.16;4971098;28;20192;-63
2022/07/17 03:12:24;;;;;;;6.57;2.23;;;;;;;12.25;78.00;101013.19;4966313;28;20286;-64
2022/07/17 03:14:50;;;;;;;6.87;2.53;;;;;;;12.25;78.23;101005.44;4972152;28;20206;-64
2022/07/17 03:17:15;;;;;;;3.97;2.00;;;;;;;12.34;78.21;101005.88;4963791;28;20270;-64
2022/07/17 03:19:40;;;;;;;9.90;2.57;;;;;;;12.24;78.06;100997.75;4972728;28;20541;-63
2022/07/17 03:22:06;;;;;;;7.63;2.03;;;;;;;12.23;79.17;101001.22;4978020;28;20227;-64
2022/07/17 03:24:31;;;;;;;2.53;1.80;;;;;;;12.18;79.71;101001.47;4971684;28;20180;-64
2022/07/17 03:26:57;;;;;;;4.50;1.90;;;;;;;12.13;79.90;101006.00;4969893;28;20201;-63
2022/07/17 03:29:23;;;;;;;4.43;1.90;;;;;;;12.15;80.44;101003.34;4972357;28;20284;-63
2022/07/17 03:31:48;;;;;;;3.10;2.13;;;;;;;12.15;80.35;101003.34;4956418;28;20646;-63
2022/07/17 03:34:14;;;;;;;4.10;2.20;;;;;;;12.17;80.61;101006.69;4974889;28;20195;-63
2022/07/17 03:36:39;;;;;;;5.47;2.27;;;;;;;12.10;80.21;101000.97;4973209;28;20563;-63
2022/07/17 03:39:05;;;;;;;3.30;2.03;;;;;;;12.08;79.98;101005.38;4972895;28;20274;-63
2022/07/17 03:41:30;;;;;;;5.97;2.03;;;;;;;12.13;80.06;101008.59;4974185;28;20681;-64
2022/07/17 03:43:56;;;;;;;4.90;2.10;;;;;;;12.15;79.33;100999.03;4976986;28;20180;-63
2022/07/17 03:46:22;;;;;;;2.83;2.30;;;;;;;12.17;78.78;101004.09;4972891;28;20188;-64
2022/07/17 03:48:48;;;;;;;3.87;1.70;;;;;;;12.16;79.16;101000.69;4972219;28;20184;-63
2022/07/17 03:51:13;;;;;;;5.87;2.13;;;;;;;12.17;79.16;101004.09;4971892;28;20241;-64
2022/07/17 03:53:38;;;;;;;9.83;2.13;;;;;;;12.18;78.75;101006.63;4968618;28;20223;-63
2022/07/17 03:56:04;;;;;;;5.40;1.97;;;;;;;12.18;78.24;101003.19;4960762;28;20192;-63
2022/07/17 03:58:30;;;;;;;10.33;2.37;;;;;;;12.21;78.21;101009.03;4971053;28;20223;-63
2022/07/17 04:00:55;;;;;;;3.70;2.20;;;;;;;12.26;77.93;101007.09;4969230;28;20227;-63
2022/07/17 04:03:20;;;;;;;3.33;2.10;;;;;;;12.31;77.73;101006.88;4980675;28;20243;-63
2022/07/17 04:05:46;;;;;;;9.40;2.10;;;;;;;12.32;78.38;101012.88;4971619;28;20279;-64
2022/07/17 04:08:12;;;;;;;4.40;2.10;;;;;;;12.27;78.31;101010.50;4972694;28;20228;-56
2022/07/17 04:10:38;;;;;;;2.47;1.90;;;;;;;12.48;77.58;101005.22;4960463;28;20223;-57
2022/07/17 04:13:03;;;;;;;2.80;1.60;;;;;;;12.55;77.13;101004.88;4982782;28;20222;-58
2022/07/17 04:18:13;;;;;;;4.50;2.30;;;;;;;12.61;76.99;101011.47;4983300;28;20198;-57
2022/07/17 04:20:38;;;;;;;4.13;2.00;;;;;;;12.68;76.60;101009.44;4970960;28;20227;-57
2022/07/17 04:23:05;;;;;;;5.00;1.93;;;;;;;12.84;74.85;101017.28;4996748;28;20731;-57
2022/07/17 04:25:30;;;;;;;3.57;1.87;;;;;;;12.93;73.91;101010.81;4976772;28;20706;-57
2022/07/17 04:27:56;;;;;;;5.80;2.17;;;;;;;13.01;73.18;101021.56;4982238;28;20184;-57
2022/07/17 04:30:21;;;;;;;4.53;2.83;;;;;;;13.16;73.42;101018.25;4980157;28;20220;-57
2022/07/17 04:32:46;;;;;;;4.80;1.90;;;;;;;13.24;72.41;101016.06;4992860;28;20207;-58
2022/07/17 04:35:11;;;;;;;6.77;2.57;;;;;;;13.35;70.98;101014.72;4982596;28;20649;-57
2022/07/17 04:37:37;;;;;;;7.33;2.57;;;;;;;13.52;70.30;101024.19;4983842;28;20253;-57
2022/07/17 04:40:02;;;;;;;3.23;1.97;;;;;;;13.61;69.68;101021.13;4980848;28;20206;-57
2022/07/17 04:42:28;;;;;;;3.03;1.80;;;;;;;13.69;70.39;101026.75;4955590;28;20222;-57
2022/07/17 04:44:53;;;;;;;8.03;2.30;;;;;;;13.85;69.94;101033.69;4986129;28;20212;-57
2022/07/17 04:47:18;;;;;;;8.30;2.03;;;;;;;13.96;68.81;101035.69;4988745;28;20252;-57
2022/07/17 04:49:43;;;;;;;7.40;2.10;;;;;;;14.03;69.33;101030.09;4974437;28;20211;-57
2022/07/17 04:52:09;;;;;;;6.50;2.77;;;;;;;14.10;68.59;101028.00;4994126;28;20218;-56
2022/07/17 04:54:34;;;;;;;4.70;2.60;;;;;;;14.17;68.18;101028.53;4984852;28;20631;-56
2022/07/17 04:56:59;;;;;;;3.93;2.20;;;;;;;14.36;67.14;101029.19;4987521;28;20183;-57
2022/07/17 04:59:25;;;;;;;7.20;2.73;;;;;;;14.34;67.29;101031.00;4978105;28;20199;-56
2022/07/17 05:01:50;;;;;;;7.60;2.90;;;;;;;14.56;66.36;101028.97;4988944;28;20270;-58
2022/07/17 05:04:15;;;;;;;7.47;3.10;;;;;;;14.65;65.98;101033.66;4990219;28;20526;-56
2022/07/17 05:06:40;;;;;;;3.93;2.47;;;;;;;14.84;65.02;101042.03;4983136;28;20212;-56
2022/07/17 05:09:06;;;;;;;5.73;2.80;;;;;;;14.96;64.63;101034.50;4988708;28;20254;-56
2022/07/17 05:11:31;;;;;;;6.67;2.77;;;;;;;15.03;65.04;101046.16;4964706;28;20557;-56
2022/07/17 05:13:56;;;;;;;8.97;2.70;;;;;;;15.08;64.80;101051.94;4965309;28;20253;-57
2022/07/17 05:16:22;;;;;;;4.03;2.70;;;;;;;15.30;63.61;101048.06;4974779;28;20264;-57
2022/07/17 05:18:47;;;;;;;7.67;2.47;;;;;;;15.48;62.91;101052.13;4974711;28;20179;-57
2022/07/17 05:21:14;;;;;;;5.27;2.77;;;;;;;15.56;63.42;101051.69;4973959;28;20712;-57
2022/07/17 05:23:39;;;;;;;6.07;2.63;;;;;;;15.54;61.55;101056.13;4972600;28;20173;-58
2022/07/17 05:26:05;;;;;;;4.67;2.90;;;;;;;15.59;61.71;101055.84;4965628;28;20202;-57
2022/07/17 05:28:30;;;;;;;6.40;3.07;;;;;;;15.82;60.27;101060.47;4974870;28;20220;-57
2022/07/17 05:30:56;;;;;;;5.97;2.90;;;;;;;15.88;59.09;101056.69;4970866;28;20231;-57
2022/07/17 05:33:21;;;;;;;9.87;2.20;;;;;;;15.84;58.29;101065.59;4983064;28;20258;-57
2022/07/17 05:35:46;;;;;;;5.03;2.40;;;;;;;15.86;59.09;101071.50;4974575;28;20186;-57
2022/07/17 05:38:12;;;;;;;8.97;2.40;;;;;;;16.02;58.63;101078.38;4974614;28;20651;-58
2022/07/17 05:40:37;;;;;;;5.80;2.67;;;;;;;16.17;58.83;101074.81;4968492;28;20307;-57
2022/07/17 05:43:02;;;;;;;6.70;2.70;;;;;;;16.26;57.79;101075.97;4985523;28;20184;-58
2022/07/17 05:45:28;;;;;;;7.00;2.37;;;;;;;16.37;57.59;101076.16;4974574;28;20623;-58
2022/07/17 05:47:53;;;;;;;7.67;2.50;;;;;;;16.63;56.51;101073.63;4974413;28;20200;-58
2022/07/17 05:50:18;;;;;;;7.10;2.67;;;;;;;16.70;56.14;101077.50;4965938;28;20252;-57
2022/07/17 05:52:44;;;;;;;5.80;2.53;;;;;;;16.86;55.30;101082.53;4987216;28;20317;-57
2022/07/17 05:55:09;;;;;;;8.53;3.10;;;;;;;17.07;55.19;101075.13;4974661;28;20188;-58
2022/07/17 05:57:34;;;;;;;5.13;2.83;;;;;;;17.12;53.47;101077.41;4974310;28;20180;-58
2022/07/17 06:00:00;;;;;;;5.10;2.73;;;;;;;17.14;53.75;101074.72;4973630;28;20245;-58
2022/07/17 06:02:25;;;;;;;6.80;3.13;;;;;;;17.48;52.66;101078.47;4979777;28;20255;-58
2022/07/17 06:04:51;;;;;;;6.23;2.77;;;;;;;17.51;54.04;101077.44;4974118;28;20188;-58
2022/07/17 06:07:16;;;;;;;6.50;2.67;;;;;;;17.97;53.14;101083.84;4988505;28;20251;-58
2022/07/17 06:09:41;;;;;;;6.77;2.43;;;;;;;18.16;50.29;101071.19;4973698;28;20176;-58
2022/07/17 06:12:06;;;;;;;3.37;2.43;;;;;;;18.25;49.83;101069.72;4964272;28;20226;-58
2022/07/17 06:14:32;;;;;;;9.63;2.47;;;;;;;18.77;47.95;101072.91;4973467;28;20538;-58
2022/07/17 06:16:57;;;;;;;5.87;2.40;;;;;;;19.18;47.10;101073.41;4973754;28;20327;-58
2022/07/17 06:19:22;;;;;;;6.10;1.97;;;;;;;19.57;45.17;101075.69;4973072;28;20184;-59
2022/07/17 06:21:48;;;;;;;4.80;2.07;;;;;;;19.45;44.71;101070.47;4972402;28;20313;-58
2022/07/17 06:24:13;;;;;;;5.73;1.87;;;;;;;19.66;43.87;101072.38;4974427;28;20340;-59
2022/07/17 06:26:38;;;;;;;6.33;1.80;;;;;;;19.89;42.87;101069.78;4972401;28;20181;-59
2022/07/17 06:29:04;;;;;;;3.80;1.63;;;;;;;20.12;41.74;101074.00;4972550;28;20195;-59
2022/07/17 06:31:29;;;;;;;4.87;1.43;;;;;;;20.47;39.79;101075.53;4955478;28;20455;-59
2022/07/17 06:33:54;;;;;;;2.07;1.40;;;;;;;20.76;38.87;101085.47;4966787;28;20187;-59
2022/07/17 06:36:20;;;;;;;3.03;1.50;;;;;;;20.96;38.36;101078.56;4974342;28;20220;-59
2022/07/17 06:38:45;;;;;;;5.40;1.53;;;;;;;21.73;36.99;101070.41;4978848;28;20198;-59
2022/07/17 06:41:10;;;;;;;26.23;5.37;;;;;;;22.50;35.44;101078.56;4976596;28;20265;-57
2022/07/17 06:43:35;;;;;;;2.73;1.47;;;;;;;23.09;33.97;101083.78;4984293;28;20219;-57
2022/07/17 06:46:01;;;;;;;2.73;1.10;;;;;;;23.83;33.10;101084.75;4976357;28;20251;-66
2022/07/17 06:48:26;;;;;;;4.20;1.47;;;;;;;24.93;31.00;101087.28;4978700;28;20552;-65
2022/07/17 06:50:51;;;;;;;5.70;1.37;;;;;;;25.82;29.53;101081.84;4969682;28;20235;-65
2022/07/17 06:53:17;;;;;;;2.20;1.20;;;;;;;27.17;27.73;101087.69;4969268;28;20330;-65
2022/07/17 06:55:42;;;;;;;4.05;1.40;;;;;;;25.68;29.50;101088.56;4968185;28;20184;-66
2022/07/17 06:58:08;;;;;;;2.40;1.05;;;;;;;25.61;29.22;101091.81;4972046;28;20179;-65
2022/07/17 07:00:34;;;;;;;3.20;1.40;;;;;;;27.33;27.02;101091.28;4951449;28;20700;-65
2022/07/17 07:02:59;;;;;;;3.72;1.35;;;;;;;28.11;26.29;101083.53;4982873;28;20604;-66
2022/07/17 07:05:25;;;;;;;2.85;1.13;;;;;;;27.70;26.65;101081.94;4972198;28;20631;-65
2022/07/17 07:07:50;;;;;;;2.88;1.23;;;;;;;28.45;25.39;101085.75;4972575;28;20319;-65
2022/07/17 07:10:15;;;;;;;2.83;1.35;;;;;;;27.53;26.58;101084.63;4962580;28;20723;-65
2022/07/17 07:12:41;;;;;;;7.32;1.70;;;;;;;29.02;25.40;101085.44;4977762;28;20204;-66
2022/07/17 07:15:07;;;;;;;2.70;1.33;;;;;;;28.89;24.72;101094.00;4964344;28;20246;-66
2022/07/17 07:17:36;;;;;;;3.70;1.58;;;;;;;29.50;24.47;101090.38;4987215;28;20186;-65
2022/07/17 07:20:04;;;;;;;6.22;1.67;;;;;;;29.84;23.84;101083.63;4971529;28;20187;-66
2022/07/17 07:22:29;;;;;;;2.20;1.45;;;;;;;28.85;25.17;101093.53;4965312;28;20674;-65
2022/07/17 07:24:54;;;;;;;4.80;1.67;;;;;;;28.88;24.98;101087.88;4972247;28;20191;-64
2022/07/17 07:27:20;;;;;;;4.50;1.73;;;;;;;29.19;23.07;101100.16;4972990;28;20639;-66
2022/07/17 07:29:45;;;;;;;6.00;1.08;;;;;;;28.23;24.89;101087.44;4971353;28;20211;-66
2022/07/17 07:32:10;;;;;;;5.82;1.58;;;;;;;29.14;23.68;101086.63;4957914;28;20752;-66
2022/07/17 07:34:36;;;;;;;3.72;1.45;;;;;;;29.18;23.87;101097.69;4971934;28;20186;-66
2022/07/17 07:37:01;;;;;;;3.60;1.58;;;;;;;29.71;22.47;101101.03;4973214;28;20611;-66
2022/07/17 07:39:26;;;;;;;4.82;1.60;;;;;;;29.58;23.41;101088.47;4971163;28;20220;-66
2022/07/17 07:41:52;;;;;;;3.05;1.48;;;;;;;29.70;23.22;101095.94;4977196;28;20619;-66
2022/07/17 07:44:18;;;;;;;4.30;1.58;;;;;;;29.43;23.00;101101.72;4973953;28;20690;-66
2022/07/17 07:46:43;;;;;;;2.55;1.20;;;;;;;30.14;22.11;101094.19;4973668;28;20264;-66
2022/07/17 07:49:08;;;;;;;3.35;1.35;;;;;;;29.37;22.87;101104.28;4975498;28;20199;-66
2022/07/17 07:51:34;;;;;;;2.17;1.15;;;;;;;29.70;22.61;101090.63;4978629;28;20230;-66
2022/07/17 07:53:59;;;;;;;5.03;1.00;;;;;;;30.47;22.13;101088.34;4980295;28;20188;-65
2022/07/17 07:56:25;;;;;;;2.95;1.30;;;;;;;30.44;21.69;101097.53;4976817;28;20196;-65
2022/07/17 07:58:50;;;;;;;2.97;1.30;;;;;;;30.60;21.82;101083.16;4974913;28;20238;-66
2022/07/17 08:01:15;;;;;;;3.22;1.42;;;;;;;28.32;23.94;101082.91;4975693;28;20227;-65
2022/07/17 08:03:40;;;;;;;4.53;1.15;;;;;;;29.38;23.18;101082.88;4982699;28;20188;-65
2022/07/17 08:06:06;;;;;;;4.68;1.75;;;;;;;30.24;22.24;101076.94;4974910;28;20268;-66
2022/07/17 08:08:31;;;;;;;1.67;0.95;;;;;;;29.52;23.17;101085.72;4976347;28;20227;-66
2022/07/17 08:10:56;;;;;;;4.55;1.00;;;;;;;29.04;23.69;101078.13;4967901;28;20238;-65
2022/07/17 08:13:22;;;;;;;7.05;1.35;;;;;;;29.18;23.90;101085.25;4984297;28;20672;-65
2022/07/17 08:15:47;;;;;;;2.28;1.40;;;;;;;30.87;20.98;101086.84;4972133;28;20184;-65
2022/07/17 08:18:12;;;;;;;3.22;1.23;;;;;;;31.05;21.05;101088.19;4973278;28;20645;-65
2022/07/17 08:20:38;;;;;;;3.70;1.38;;;;;;;32.24;19.25;101077.38;4979292;28;20234;-65
2022/07/17 08:23:03;;;;;;;4.43;1.10;;;;;;;33.89;18.71;101078.19;4978109;28;20184;-65
2022/07/17 08:25:28;;;;;;;1.83;1.15;;;;;;;31.80;19.90;101069.72;4976086;28;20262;-65
2022/07/17 08:27:54;;;;;;;2.92;1.33;;;;;;;33.05;19.13;101075.47;4976065;28;20203;-65
2022/07/17 08:30:19;;;;;;;2.95;1.02;;;;;;;32.98;19.07;101067.50;4966286;28;20207;-65
2022/07/17 08:32:44;;;;;;;4.05;1.50;;;;;;;32.97;18.94;101073.84;4988884;28;20215;-65
2022/07/17 08:35:10;;;;;;;4.85;1.27;;;;;;;31.35;19.61;101066.69;4974749;28;20180;-65
2022/07/17 08:38:02;;;;;;;2.58;1.08;;;;;;;33.18;18.14;101077.28;4974515;28;20634;-65
2022/07/17 08:40:30;;;;;;;2.33;1.10;;;;;;;33.08;19.06;101067.06;4966700;28;20270;-66
2022/07/17 08:43:02;;;;;;;2.78;1.20;;;;;;;32.09;19.05;101059.75;4987461;28;20215;-65
2022/07/17 08:45:27;;;;;;;4.03;1.52;;;;;;;32.75;18.55;101059.97;4976161;28;20219;-65
2022/07/17 08:47:55;;;;;;;3.63;1.40;;;;;;;34.08;17.65;101060.44;4975891;28;20214;-65
2022/07/17 08:50:24;;;;;;;2.60;1.13;;;;;;;32.59;18.95;101066.53;4967875;28;20195;-65
2022/07/17 08:52:49;;;;;;;3.65;1.23;;;;;;;32.32;18.51;101058.53;4987671;28;20215;-65
2022/07/17 08:55:15;;;;;;;2.88;1.15;;;;;;;32.50;19.66;101058.75;4984207;28;20191;-65
2022/07/17 08:57:43;;;;;;;1.63;0.90;;;;;;;33.51;19.18;101055.81;4978749;28;20196;-66
2022/07/17 09:00:19;;;;;;;4.78;1.20;;;;;;;34.08;17.61;101055.09;4980176;28;20184;-66
2022/07/17 09:03:02;;;;;;;3.97;1.23;;;;;;;34.33;16.21;101062.28;4988516;28;20255;-66
2022/07/17 09:05:37;;;;;;;3.22;1.02;;;;;;;33.39;17.79;101071.69;4974261;28;20540;-66
2022/07/17 09:08:04;;;;;;;4.13;1.35;;;;;;;31.53;18.97;101055.50;4975286;28;20730;-66
2022/07/17 09:10:40;;;;;;;5.18;1.08;;;;;;;29.63;21.04;101061.38;4963073;28;20232;-64
2022/07/17 09:13:23;;;;;;;6.40;1.42;;;;;;;31.96;19.49;101060.53;4963242;28;20200;-64
2022/07/17 09:15:51;;;;;;;3.95;1.30;;;;;;;33.77;17.37;101054.84;4962583;28;20191;-65
2022/07/17 09:18:17;;;;;;;2.60;1.17;;;;;;;32.22;17.90;101052.81;4969152;28;20192;-65
2022/07/17 09:20:53;;;;;;;3.50;1.30;;;;;;;33.11;16.72;101059.47;4966799;28;20234;-65
2022/07/17 09:23:20;;;;;;;4.40;1.40;;;;;;;33.04;17.55;101065.84;4983969;28;20641;-66
2022/07/17 09:25:49;;;;;;;3.45;0.95;;;;;;;32.75;17.41;101058.13;4974995;28;20647;-66
2022/07/17 09:28:16;;;;;;;2.78;1.20;;;;;;;32.93;17.47;101065.47;4989656;28;20180;-65
2022/07/17 09:30:44;;;;;;;3.58;1.35;;;;;;;32.10;17.87;101056.06;4969641;28;20313;-65
2022/07/17 09:33:39;;;;;;;2.42;1.17;;;;;;;30.23;19.92;101063.88;4984604;28;20709;-65
2022/07/17 09:36:10;;;;;;;2.10;1.15;;;;;;;29.13;21.09;101050.56;4975350;28;20304;-64
2022/07/17 09:38:37;;;;;;;2.90;1.30;;;;;;;30.41;20.43;101050.94;4991898;28;20539;-65
2022/07/17 09:41:15;;;;;;;3.25;1.20;;;;;;;29.98;20.41;101064.25;4981855;28;20675;-65
2022/07/17 09:43:47;;;;;;;2.30;0.98;;;;;;;31.90;19.75;101053.34;4992021;28;20274;-65
2022/07/17 09:46:24;;;;;;;2.88;1.30;;;;;;;32.64;17.51;101064.88;4991596;28;20223;-65
2022/07/17 09:48:55;;;;;;;4.07;1.20;;;;;;;31.60;18.23;101059.00;4991494;28;20231;-65
2022/07/17 09:51:24;;;;;;;1.88;1.02;;;;;;;31.37;18.42;101052.19;4981582;28;20258;-65
2022/07/17 09:53:53;;;;;;;2.63;1.33;;;;;;;32.48;18.11;101062.63;4991688;28;20234;-65
2022/07/17 09:56:20;;;;;;;1.92;1.20;;;;;;;31.28;17.99;101049.88;4991432;28;20191;-65
2022/07/17 09:58:50;;;;;;;2.55;1.20;;;;;;;31.86;18.16;101052.13;4971632;28;20391;-65
2022/07/17 10:01:16;;;;;;;2.95;1.38;;;;;;;31.03;18.63;101053.81;4978880;28;20222;-63
2022/07/17 10:03:42;;;;;;;2.50;1.30;;;;;;;31.82;16.98;101041.06;4991445;28;20262;-63
2022/07/17 10:06:10;;;;;;;1.73;1.00;;;;;;;33.23;16.63;101056.97;4974597;28;20199;-63
2022/07/17 10:08:37;;;;;;;2.20;1.00;;;;;;;34.71;14.93;101051.47;4985548;28;20224;-63
2022/07/17 10:11:03;;;;;;;1.95;1.30;;;;;;;34.64;15.25;101049.91;4980062;28;20597;-64
2022/07/17 10:13:30;;;;;;;3.20;1.10;;;;;;;35.38;15.46;101049.91;4971386;28;20220;-64
2022/07/17 10:15:56;;;;;;;3.70;1.13;;;;;;;36.96;14.17;101056.63;4972903;28;20212;-64
2022/07/17 10:18:21;;;;;;;2.33;1.50;;;;;;;37.97;12.92;101054.47;4973682;28;20261;-64
2022/07/17 10:20:47;;;;;;;3.42;1.20;;;;;;;37.99;12.35;101062.28;4969256;28;20664;-64
2022/07/17 10:23:16;;;;;;;3.58;1.20;;;;;;;36.37;13.30;101062.06;4983309;28;20280;-64
2022/07/17 10:25:42;;;;;;;2.90;1.25;;;;;;;35.03;14.64;101067.38;4988853;28;20285;-64
2022/07/17 10:28:08;;;;;;;3.58;1.00;;;;;;;35.99;14.09;101057.91;4972578;28;20180;-64
2022/07/17 10:30:33;;;;;;;2.00;1.20;;;;;;;35.23;14.25;101066.34;4967309;28;20294;-64
2022/07/17 10:33:00;;;;;;;2.25;1.20;;;;;;;33.41;15.86;101068.81;4984705;28;20595;-64
2022/07/17 10:35:28;;;;;;;2.50;1.23;;;;;;;34.33;14.63;101063.09;4972713;28;20187;-64
2022/07/17 10:37:57;;;;;;;2.63;1.20;;;;;;;35.43;14.81;101055.41;4972656;28;20196;-64
2022/07/17 10:40:28;;;;;;;1.92;1.00;;;;;;;36.76;12.98;101058.88;4966280;28;20231;-64
2022/07/17 10:43:01;;;;;;;3.22;1.10;;;;;;;36.55;13.52;101053.06;4985535;28;20188;-64
2022/07/17 10:45:34;;;;;;;3.13;1.48;;;;;;;34.93;14.22;101056.41;4973746;28;20203;-64
2022/07/17 10:48:10;;;;;;;1.38;0.90;;;;;;;31.40;16.55;101048.31;4959013;28;20638;-64
2022/07/17 10:50:41;;;;;;;1.85;1.10;;;;;;;30.42;18.89;101046.47;4965395;28;20227;-63
2022/07/17 10:53:12;;;;;;;3.55;1.27;;;;;;;28.27;20.21;101043.75;4983526;28;20203;-63
2022/07/17 10:55:41;;;;;;;2.28;1.30;;;;;;;27.49;21.41;101043.69;4972182;28;20203;-64
2022/07/17 10:58:18;;;;;;;4.80;1.65;;;;;;;26.92;22.10;101049.13;4972980;28;20238;-63
2022/07/17 11:00:54;;;;;;;2.88;1.20;;;;;;;26.55;21.50;101052.13;4958423;28;20660;-63
2022/07/17 11:03:20;;;;;;;3.20;0.98;;;;;;;26.41;22.26;101050.16;4982290;28;20208;-63
2022/07/17 11:05:45;;;;;;;2.72;1.10;;;;;;;26.12;21.91;101043.53;4971849;28;20222;-63
2022/07/17 11:08:11;;;;;;;2.50;1.27;;;;;;;26.42;22.05;101038.63;4971071;28;20245;-63
2022/07/17 11:10:38;;;;;;;5.13;1.40;;;;;;;26.68;21.93;101037.59;4960705;28;20294;-63
2022/07/17 11:13:08;;;;;;;2.92;1.08;;;;;;;27.00;20.79;101036.75;4976616;28;20290;-63
2022/07/17 11:15:45;;;;;;;3.25;1.10;;;;;;;26.41;21.06;101040.44;4964919;28;20270;-63
2022/07/17 11:18:16;;;;;;;1.83;1.20;;;;;;;26.31;21.02;101034.50;4987858;28;20258;-63
2022/07/17 11:20:49;;;;;;;1.85;1.00;;;;;;;26.58;20.19;101037.78;4980058;28;20244;-64
2022/07/17 11:23:15;;;;;;;3.08;1.00;;;;;;;26.99;21.61;101031.63;4982061;28;20695;-64